createdAt,value
2023-12-05T00:00:48.402Z,73.50
2023-12-05T00:03:37.061Z,73.60
2023-12-05T00:06:24.685Z,73.70
2023-12-05T00:09:12.703Z,73.70
2023-12-05T00:12:00.045Z,73.70
2023-12-05T00:14:47.317Z,73.50
2023-12-05T00:17:34.892Z,73.60
2023-12-05T00:20:22.651Z,73.70
2023-12-05T00:23:09.814Z,73.60
2023-12-05T00:25:57.039Z,73.60
2023-12-05T00:28:44.222Z,73.60
2023-12-05T00:31:31.578Z,73.70
2023-12-05T00:34:18.883Z,73.60
2023-12-05T00:37:06.220Z,73.70
2023-12-05T00:39:53.467Z,73.70
2023-12-05T00:42:40.861Z,73.70
2023-12-05T00:45:28.071Z,73.90
2023-12-05T00:48:15.505Z,73.90
2023-12-05T00:51:02.885Z,73.90
2023-12-05T00:53:50.106Z,73.90
2023-12-05T00:56:37.644Z,74.00
2023-12-05T00:59:24.882Z,73.90
2023-12-05T01:02:12.204Z,73.90
2023-12-05T01:04:59.544Z,73.80
2023-12-05T01:07:47.982Z,73.80
2023-12-05T01:10:35.878Z,73.70
2023-12-05T01:13:23.434Z,73.70
2023-12-05T01:16:11.277Z,73.70
2023-12-05T01:18:58.583Z,73.70
2023-12-05T01:21:45.899Z,73.60
2023-12-05T01:24:33.177Z,73.60
2023-12-05T01:27:20.435Z,73.50
2023-12-05T01:30:08.230Z,73.50
2023-12-05T01:32:55.529Z,73.50
2023-12-05T01:35:42.758Z,73.50
2023-12-05T01:38:30.032Z,73.50
2023-12-05T01:41:17.426Z,73.50
2023-12-05T01:44:04.726Z,73.60
2023-12-05T01:46:52.009Z,73.70
2023-12-05T01:49:40.817Z,73.60
2023-12-05T01:52:28.131Z,73.60
2023-12-05T01:55:16.862Z,73.60
2023-12-05T01:58:05.740Z,73.60
2023-12-05T02:00:54.140Z,73.60
2023-12-05T02:03:41.472Z,73.60
2023-12-05T02:06:28.893Z,73.70
2023-12-05T02:09:18.000Z,73.50
2023-12-05T02:12:06.059Z,73.70
2023-12-05T02:14:53.664Z,73.60
2023-12-05T02:17:49.805Z,73.60
2023-12-05T02:20:52.657Z,73.60
2023-12-05T02:23:51.360Z,73.60
2023-12-05T02:27:07.074Z,73.60
2023-12-05T02:29:54.332Z,73.70
2023-12-05T02:32:42.316Z,73.70
2023-12-05T02:35:29.711Z,73.70
2023-12-05T02:38:30.994Z,73.70
2023-12-05T02:41:23.398Z,73.80
2023-12-05T02:44:13.611Z,73.80
2023-12-05T02:47:02.604Z,73.80
2023-12-05T02:49:50.777Z,73.70
2023-12-05T02:52:38.048Z,73.70
2023-12-05T02:55:25.248Z,73.70
2023-12-05T02:58:12.463Z,73.60
2023-12-05T03:01:00.378Z,73.60
2023-12-05T03:03:48.609Z,73.70
2023-12-05T03:06:35.925Z,73.60
2023-12-05T03:09:23.319Z,73.60
2023-12-05T03:12:10.553Z,73.70
2023-12-05T03:14:57.735Z,73.60
2023-12-05T03:17:45.054Z,73.70
2023-12-05T03:20:32.467Z,73.80
2023-12-05T03:23:20.081Z,73.70
2023-12-05T03:26:08.010Z,73.70
2023-12-05T03:28:55.306Z,73.70
2023-12-05T03:31:43.398Z,73.70
2023-12-05T03:34:30.624Z,73.70
2023-12-05T03:37:17.854Z,73.70
2023-12-05T03:40:05.875Z,73.70
2023-12-05T03:42:53.324Z,73.80
2023-12-05T03:45:40.514Z,73.70
2023-12-05T03:48:27.841Z,73.80
2023-12-05T03:51:15.276Z,73.80
2023-12-05T03:54:04.005Z,73.80
2023-12-05T03:56:51.234Z,73.90
2023-12-05T03:59:38.497Z,73.80
2023-12-05T04:02:25.761Z,73.80
2023-12-05T04:05:13.261Z,73.90
2023-12-05T04:08:00.517Z,73.90
2023-12-05T04:10:47.789Z,73.90
2023-12-05T04:13:38.837Z,73.80
2023-12-05T04:16:26.820Z,73.90
2023-12-05T04:19:14.176Z,73.90
2023-12-05T04:22:01.602Z,73.90
2023-12-05T04:24:48.903Z,73.80
2023-12-05T04:27:36.149Z,73.90
2023-12-05T04:30:23.532Z,73.90
2023-12-05T04:33:10.951Z,73.80
2023-12-05T04:35:58.183Z,73.90
2023-12-05T04:38:45.456Z,73.90
2023-12-05T04:41:35.199Z,73.80
2023-12-05T04:44:22.616Z,73.90
2023-12-05T04:47:10.567Z,73.90
2023-12-05T04:49:57.737Z,73.90
2023-12-05T04:52:45.072Z,73.90
2023-12-05T04:55:32.286Z,73.90
2023-12-05T04:58:19.535Z,73.90
2023-12-05T05:01:07.235Z,74.00
2023-12-05T05:03:54.656Z,73.90
2023-12-05T05:06:42.107Z,73.90
2023-12-05T05:09:29.481Z,74.00
2023-12-05T05:12:17.421Z,73.90
2023-12-05T05:15:05.092Z,73.90
2023-12-05T05:17:52.426Z,74.00
2023-12-05T05:20:39.589Z,74.00
2023-12-05T05:23:27.094Z,74.00
2023-12-05T05:26:15.538Z,74.00
2023-12-05T05:29:02.917Z,74.00
2023-12-05T05:31:50.142Z,73.90
2023-12-05T05:34:37.502Z,73.90
2023-12-05T05:37:24.769Z,73.90
2023-12-05T05:40:12.492Z,73.90
2023-12-05T05:42:59.732Z,73.90
2023-12-05T05:45:47.047Z,73.90
2023-12-05T05:48:34.474Z,73.90
2023-12-05T05:51:22.179Z,73.80
2023-12-05T05:54:09.436Z,73.80
2023-12-05T05:56:56.686Z,73.70
2023-12-05T05:59:44.403Z,73.80
2023-12-05T06:02:31.599Z,73.80
2023-12-05T06:05:18.886Z,74.50
2023-12-05T06:08:06.183Z,73.70
2023-12-05T06:10:53.465Z,73.70
2023-12-05T06:13:40.725Z,73.50
2023-12-05T06:16:27.910Z,73.50
2023-12-05T06:19:15.934Z,73.60
2023-12-05T06:22:03.142Z,73.60
2023-12-05T06:24:50.435Z,73.50
2023-12-05T06:27:37.783Z,73.40
2023-12-05T06:30:27.384Z,73.40
2023-12-05T06:33:15.266Z,73.30
2023-12-05T06:36:02.783Z,73.20
2023-12-05T06:38:49.954Z,73.10
2023-12-05T06:41:37.651Z,73.10
2023-12-05T06:44:24.901Z,73.00
2023-12-05T06:47:12.099Z,72.90
2023-12-05T06:50:02.994Z,72.80
2023-12-05T06:52:51.474Z,72.80
2023-12-05T06:55:40.131Z,72.80
2023-12-05T06:58:28.428Z,72.90
2023-12-05T07:01:15.756Z,72.70
2023-12-05T07:04:03.127Z,72.70
2023-12-05T07:06:50.493Z,72.70
2023-12-05T07:09:37.937Z,72.60
2023-12-05T07:12:25.249Z,72.50
2023-12-05T07:15:12.486Z,72.40
2023-12-05T07:17:59.736Z,72.10
2023-12-05T07:20:47.026Z,72.20
2023-12-05T07:23:34.166Z,72.10
2023-12-05T07:26:21.444Z,72.10
2023-12-05T07:29:09.914Z,72.20
2023-12-05T07:31:57.128Z,72.20
2023-12-05T07:34:45.292Z,72.10
2023-12-05T07:37:32.876Z,71.90
2023-12-05T07:40:20.549Z,71.80
2023-12-05T07:43:08.309Z,71.90
2023-12-05T07:45:55.577Z,71.80
2023-12-05T07:48:43.228Z,71.80
2023-12-05T07:51:30.648Z,71.70
2023-12-05T07:54:17.970Z,71.60
2023-12-05T07:57:05.411Z,71.60
2023-12-05T07:59:52.724Z,71.60
2023-12-05T08:02:39.909Z,71.50
2023-12-05T08:05:27.155Z,71.50
2023-12-05T08:08:14.391Z,71.60
2023-12-05T08:11:02.296Z,71.50
2023-12-05T08:13:50.406Z,71.60
2023-12-05T08:16:39.685Z,71.50
2023-12-05T08:19:26.869Z,71.40
2023-12-05T08:22:14.312Z,71.40
2023-12-05T08:25:01.540Z,71.40
2023-12-05T08:27:48.791Z,71.30
2023-12-05T08:30:36.905Z,71.40
2023-12-05T08:33:24.317Z,71.30
2023-12-05T08:36:12.047Z,71.30
2023-12-05T08:38:59.286Z,71.20
2023-12-05T08:41:46.690Z,71.20
2023-12-05T08:44:33.961Z,71.20
2023-12-05T08:47:21.426Z,71.20
2023-12-05T08:50:09.106Z,71.30
2023-12-05T08:52:56.362Z,71.30
2023-12-05T08:55:45.010Z,71.10
2023-12-05T08:58:32.262Z,71.20
2023-12-05T09:01:20.874Z,71.10
2023-12-05T09:04:09.409Z,71.20
2023-12-05T09:06:56.917Z,71.20
2023-12-05T09:09:44.221Z,71.20
2023-12-05T09:12:31.657Z,71.00
2023-12-05T09:15:18.959Z,71.00
2023-12-05T09:18:06.235Z,71.00
2023-12-05T09:20:53.504Z,71.10
2023-12-05T09:23:40.785Z,71.10
2023-12-05T09:26:27.979Z,71.20
2023-12-05T09:29:15.252Z,71.20
2023-12-05T09:32:02.432Z,71.00
2023-12-05T09:34:49.691Z,71.40
2023-12-05T09:37:36.931Z,71.30
2023-12-05T09:40:24.624Z,71.30
2023-12-05T09:43:11.933Z,71.20
2023-12-05T09:46:01.735Z,71.10
2023-12-05T09:48:50.765Z,70.90
2023-12-05T09:51:38.549Z,70.90
2023-12-05T09:54:27.079Z,70.90
2023-12-05T09:57:15.035Z,71.00
2023-12-05T10:00:02.292Z,71.00
2023-12-05T10:02:51.082Z,71.10
2023-12-05T10:05:43.171Z,71.10
2023-12-05T10:08:31.068Z,71.60
2023-12-05T10:11:21.594Z,71.60
2023-12-05T10:14:08.904Z,72.10
2023-12-05T10:16:56.490Z,71.70
2023-12-05T10:19:43.855Z,71.60
2023-12-05T10:22:33.026Z,71.60
2023-12-05T10:25:20.408Z,71.60
2023-12-05T10:28:08.199Z,71.70
2023-12-05T10:30:55.542Z,71.70
2023-12-05T10:33:42.890Z,71.60
2023-12-05T10:36:30.155Z,71.70
2023-12-05T10:39:17.352Z,71.50
2023-12-05T10:42:05.227Z,71.60
2023-12-05T10:44:52.409Z,71.50
2023-12-05T10:47:39.716Z,71.60
2023-12-05T10:50:26.943Z,71.80
2023-12-05T10:53:15.687Z,72.50
2023-12-05T10:56:16.418Z,71.80
2023-12-05T10:59:04.524Z,71.90
2023-12-05T11:01:51.978Z,72.00
2023-12-05T11:04:40.716Z,71.80
2023-12-05T11:07:27.940Z,71.90
2023-12-05T11:10:17.937Z,71.80
2023-12-05T11:13:05.566Z,71.70
2023-12-05T11:15:57.550Z,71.80
2023-12-05T11:18:46.738Z,71.70
2023-12-05T11:21:59.004Z,71.80
2023-12-05T11:24:57.964Z,72.00
2023-12-05T11:28:15.956Z,71.90
2023-12-05T11:31:34.292Z,71.80
2023-12-05T11:34:34.356Z,71.70
2023-12-05T11:37:44.702Z,71.80
2023-12-05T11:40:32.156Z,71.70
2023-12-05T11:43:19.465Z,71.50
2023-12-05T11:46:06.784Z,71.70
2023-12-05T11:48:56.222Z,71.70
2023-12-05T11:51:53.072Z,71.60
2023-12-05T11:54:43.569Z,71.60
2023-12-05T11:57:33.498Z,71.60
2023-12-05T12:00:22.040Z,71.70
2023-12-05T12:03:10.030Z,71.70
2023-12-05T12:06:06.990Z,71.40
2023-12-05T12:08:55.524Z,71.00
2023-12-05T12:11:44.075Z,71.00
2023-12-05T12:14:32.019Z,71.00
2023-12-05T12:17:19.291Z,70.70
2023-12-05T12:20:07.060Z,70.60
2023-12-05T12:22:54.375Z,70.80
2023-12-05T12:25:58.755Z,70.60
2023-12-05T12:28:50.323Z,70.30
2023-12-05T12:31:37.595Z,70.20
2023-12-05T12:34:28.915Z,70.40
2023-12-05T12:37:21.040Z,70.60
2023-12-05T12:40:10.350Z,70.70
2023-12-05T12:42:58.075Z,70.70
2023-12-05T12:45:45.329Z,70.50
2023-12-05T12:48:32.768Z,70.50
2023-12-05T12:51:20.235Z,70.50
2023-12-05T12:54:08.055Z,70.60
2023-12-05T12:56:55.924Z,70.50
2023-12-05T12:59:43.504Z,70.50
2023-12-05T13:02:32.666Z,71.40
2023-12-05T13:05:19.853Z,70.50
2023-12-05T13:08:10.311Z,70.50
2023-12-05T13:10:57.571Z,70.60
2023-12-05T13:13:45.334Z,70.70
2023-12-05T13:16:32.649Z,70.70
2023-12-05T13:19:28.894Z,70.70
2023-12-05T13:22:17.202Z,70.60
2023-12-05T13:25:05.182Z,70.50
2023-12-05T13:27:53.347Z,70.40
2023-12-05T13:30:41.166Z,70.60
2023-12-05T13:33:28.458Z,70.40
2023-12-05T13:36:16.919Z,70.50
2023-12-05T13:39:04.621Z,70.60
2023-12-05T13:41:52.494Z,70.60
2023-12-05T13:44:44.000Z,70.60
2023-12-05T13:47:31.284Z,70.70
2023-12-05T13:50:20.251Z,70.70
2023-12-05T13:53:07.439Z,70.90
2023-12-05T13:55:54.703Z,70.80
2023-12-05T13:58:44.282Z,70.70
2023-12-05T14:01:31.645Z,70.60
2023-12-05T14:04:21.917Z,70.60
2023-12-05T14:07:09.236Z,70.40
2023-12-05T14:09:56.555Z,70.30
2023-12-05T14:12:43.834Z,70.30
2023-12-05T14:15:31.129Z,70.10
2023-12-05T14:18:18.460Z,70.40
2023-12-05T14:21:05.923Z,70.40
2023-12-05T14:23:53.128Z,70.30
2023-12-05T14:26:40.383Z,71.50
2023-12-05T14:29:27.565Z,70.60
2023-12-05T14:32:15.779Z,70.70
2023-12-05T14:35:05.558Z,71.10
2023-12-05T14:37:52.928Z,71.00
2023-12-05T14:40:40.119Z,71.20
2023-12-05T14:43:27.727Z,71.00
2023-12-05T14:46:15.065Z,71.00
2023-12-05T14:49:02.401Z,70.90
2023-12-05T14:51:49.627Z,70.90
2023-12-05T14:54:36.911Z,70.80
2023-12-05T14:57:26.595Z,70.80
2023-12-05T15:00:14.566Z,70.80
2023-12-05T15:03:02.151Z,70.60
2023-12-05T15:05:49.454Z,70.70
2023-12-05T15:08:36.630Z,70.70
2023-12-05T15:11:24.221Z,70.70
2023-12-05T15:14:11.907Z,70.80
2023-12-05T15:16:59.251Z,71.60
2023-12-05T15:20:17.716Z,70.70
2023-12-05T15:22:53.937Z,70.70
2023-12-05T15:25:41.415Z,70.80
2023-12-05T15:28:30.395Z,70.70
2023-12-05T15:31:19.261Z,70.60
2023-12-05T15:34:06.662Z,70.80
2023-12-05T15:36:54.032Z,70.70
2023-12-05T15:39:41.322Z,71.20
2023-12-05T15:42:28.999Z,71.20
2023-12-05T15:45:18.154Z,71.10
2023-12-05T15:48:07.076Z,70.90
2023-12-05T15:50:54.577Z,71.20
2023-12-05T15:53:42.665Z,71.10
2023-12-05T15:56:30.519Z,71.10
2023-12-05T15:59:20.726Z,71.10
2023-12-05T16:02:08.061Z,71.10
2023-12-05T16:04:55.248Z,71.00
2023-12-05T16:07:42.565Z,71.20
2023-12-05T16:10:29.730Z,71.10
2023-12-05T16:13:17.117Z,71.10
2023-12-05T16:16:05.229Z,71.00
2023-12-05T16:18:52.597Z,71.00
2023-12-05T16:21:39.876Z,70.90
2023-12-05T16:24:27.218Z,70.90
2023-12-05T16:27:15.080Z,71.00
2023-12-05T16:30:03.234Z,71.00
2023-12-05T16:32:50.897Z,71.00
2023-12-05T16:35:38.401Z,70.90
2023-12-05T16:38:25.796Z,70.90
2023-12-05T16:41:14.237Z,70.90
2023-12-05T16:44:01.440Z,70.80
2023-12-05T16:46:48.628Z,71.50
2023-12-05T16:49:35.902Z,70.80
2023-12-05T16:52:23.337Z,70.90
2023-12-05T16:55:10.589Z,70.90
2023-12-05T16:57:59.067Z,70.90
2023-12-05T17:00:47.514Z,71.00
2023-12-05T17:03:34.897Z,71.00
2023-12-05T17:06:23.087Z,71.20
2023-12-05T17:09:10.889Z,71.10
2023-12-05T17:11:58.200Z,71.10
2023-12-05T17:14:45.538Z,71.00
2023-12-05T17:17:34.740Z,70.90
2023-12-05T17:20:22.051Z,71.70
2023-12-05T17:23:09.340Z,70.80
2023-12-05T17:25:57.017Z,70.70
2023-12-05T17:28:44.385Z,70.80
2023-12-05T17:31:32.246Z,70.80
2023-12-05T17:34:19.621Z,70.80
2023-12-05T17:37:07.025Z,70.80
2023-12-05T17:39:54.400Z,70.80
2023-12-05T17:42:41.712Z,70.60
2023-12-05T17:45:29.332Z,70.60
2023-12-05T17:48:17.107Z,70.90
2023-12-05T17:51:04.809Z,70.90
2023-12-05T17:53:52.035Z,71.00
2023-12-05T17:56:39.494Z,71.60
2023-12-05T17:59:26.748Z,70.80
2023-12-05T18:02:13.991Z,70.70
2023-12-05T18:05:01.971Z,70.60
2023-12-05T18:07:56.488Z,70.60
2023-12-05T18:10:46.946Z,70.70
2023-12-05T18:13:34.303Z,70.50
2023-12-05T18:16:21.695Z,70.80
2023-12-05T18:19:09.377Z,70.60
2023-12-05T18:21:56.596Z,70.70
2023-12-05T18:24:47.587Z,70.60
2023-12-05T18:27:35.097Z,70.70
2023-12-05T18:30:22.337Z,70.90
2023-12-05T18:33:10.049Z,70.70
2023-12-05T18:35:57.410Z,70.80
2023-12-05T18:38:44.776Z,70.60
2023-12-05T18:41:32.018Z,70.50
2023-12-05T18:44:19.410Z,70.40
2023-12-05T18:47:06.776Z,70.60
2023-12-05T18:49:54.501Z,70.50
2023-12-05T18:52:41.858Z,70.30
2023-12-05T18:55:29.124Z,70.30
2023-12-05T18:58:16.466Z,70.10
2023-12-05T19:01:04.141Z,70.00
2023-12-05T19:03:51.654Z,70.10
2023-12-05T19:06:39.089Z,70.00
2023-12-05T19:09:26.964Z,70.00
2023-12-05T19:12:15.408Z,69.90
2023-12-05T19:15:03.338Z,69.80
2023-12-05T19:17:52.153Z,69.60
2023-12-05T19:20:40.122Z,69.90
2023-12-05T19:23:27.392Z,69.50
2023-12-05T19:26:26.909Z,69.70
2023-12-05T19:29:14.358Z,69.90
2023-12-05T19:32:02.525Z,69.70
2023-12-05T19:34:51.294Z,69.60
2023-12-05T19:37:39.080Z,69.30
2023-12-05T19:40:26.823Z,69.20
2023-12-05T19:43:14.108Z,69.00
2023-12-05T19:46:01.451Z,69.20
2023-12-05T19:48:50.270Z,69.20
2023-12-05T19:51:37.744Z,69.20
2023-12-05T19:54:25.070Z,69.20
2023-12-05T19:57:13.257Z,68.90
2023-12-05T20:00:01.120Z,69.00
2023-12-05T20:02:48.407Z,69.00
2023-12-05T20:05:35.602Z,69.40
2023-12-05T20:08:23.456Z,68.90
2023-12-05T20:11:16.109Z,68.80
2023-12-05T20:14:03.432Z,68.50
2023-12-05T20:16:50.716Z,68.60
2023-12-05T20:19:38.308Z,68.70
2023-12-05T20:22:25.993Z,68.80
2023-12-05T20:25:13.396Z,68.90
2023-12-05T20:28:00.834Z,68.80
2023-12-05T20:30:50.229Z,68.70
2023-12-05T20:33:37.644Z,68.50
2023-12-05T20:36:25.292Z,68.30
2023-12-05T20:39:13.188Z,68.20
2023-12-05T20:42:00.405Z,68.40
2023-12-05T20:44:47.613Z,68.10
2023-12-05T20:47:35.907Z,68.20
2023-12-05T20:50:24.779Z,68.10
2023-12-05T20:53:12.440Z,67.90
2023-12-05T20:56:00.045Z,67.90
2023-12-05T20:58:47.283Z,67.80
2023-12-05T21:01:34.771Z,67.70
2023-12-05T21:04:22.254Z,67.60
2023-12-05T21:07:09.713Z,67.70
2023-12-05T21:09:56.993Z,67.60
2023-12-05T21:12:44.293Z,67.50
2023-12-05T21:15:31.628Z,67.50
2023-12-05T21:18:20.323Z,67.20
2023-12-05T21:21:07.707Z,67.50
2023-12-05T21:23:55.003Z,67.30
2023-12-05T21:26:42.241Z,67.30
2023-12-05T21:29:29.546Z,67.40
2023-12-05T21:32:17.022Z,67.40
2023-12-05T21:35:04.438Z,67.40
2023-12-05T21:37:51.701Z,67.20
2023-12-05T21:40:39.072Z,67.20
2023-12-05T21:43:27.960Z,67.40
2023-12-05T21:46:28.834Z,67.50
2023-12-05T21:49:16.603Z,67.20
2023-12-05T21:52:05.074Z,67.50
2023-12-05T21:57:39.952Z,67.30
2023-12-05T22:00:27.447Z,67.30
2023-12-05T22:03:14.737Z,67.40
2023-12-05T22:06:02.241Z,67.40
2023-12-05T22:08:49.460Z,67.20
2023-12-05T22:11:36.798Z,67.50
2023-12-05T22:14:24.320Z,67.40
2023-12-05T22:17:11.691Z,67.40
2023-12-05T22:19:59.014Z,67.40
2023-12-05T22:22:46.337Z,67.40
2023-12-05T22:25:34.360Z,67.50
2023-12-05T22:28:21.716Z,67.50
2023-12-05T22:31:12.103Z,67.40
2023-12-05T22:33:59.789Z,67.50
2023-12-05T22:36:47.054Z,67.50
2023-12-05T22:39:34.857Z,67.50
2023-12-05T22:42:22.106Z,67.90
2023-12-05T22:45:09.589Z,68.10
2023-12-05T22:47:56.931Z,68.20
2023-12-05T22:50:44.172Z,68.20
2023-12-05T22:53:31.647Z,68.30
2023-12-05T22:56:19.459Z,68.20
2023-12-05T22:59:06.752Z,68.30
2023-12-05T23:01:54.032Z,68.50
2023-12-05T23:04:41.316Z,68.50
2023-12-05T23:07:28.644Z,68.40
2023-12-05T23:10:16.349Z,68.40
2023-12-05T23:13:03.924Z,68.60
2023-12-05T23:15:53.823Z,68.60
2023-12-05T23:18:41.210Z,68.70
2023-12-05T23:21:28.485Z,68.70
2023-12-05T23:24:15.666Z,68.60
2023-12-05T23:27:03.023Z,68.50
2023-12-05T23:29:50.673Z,68.60
2023-12-05T23:32:38.043Z,68.70
2023-12-05T23:35:25.315Z,69.50
2023-12-05T23:38:13.030Z,68.70
2023-12-05T23:41:00.288Z,69.00
2023-12-05T23:43:47.700Z,68.80
2023-12-05T23:46:35.015Z,68.90
2023-12-05T23:49:22.325Z,69.60
2023-12-05T23:52:09.766Z,68.70
2023-12-05T23:54:57.213Z,68.90
2023-12-05T23:57:44.610Z,68.80
